Time;durP1;ratioP1;P1;durP2;ratioP2;P2;SDS_P1;SDS_P2;PMS_P1;PMS_P2;Temp;Humidity;BMP_temperature;BMP_pressure;BME280_temperature;BME280_humidity;BME280_pressure;Samples;Min_cycle;Max_cycle;Signal;HPM_P1;HPM_P2
2021/10/02 00:44:49;;;;;;;1.63;1.30;;;20.60;98.70;;;20.76;50.54;100931.06;5069530;27;98654;-50
2021/10/02 00:47:19;;;;;;;2.17;1.27;;;20.60;98.80;;;20.79;50.67;100936.19;5055457;27;100107;-45
2021/10/02 00:49:48;;;;;;;2.27;1.27;;;20.70;98.70;;;20.77;50.46;100927.41;5050699;27;99500;-49
2021/10/02 00:52:16;;;;;;;1.23;1.13;;;20.60;98.70;;;20.74;50.77;100927.63;5048654;27;102198;-48
2021/10/02 00:54:43;;;;;;;1.70;1.30;;;20.60;98.90;;;20.70;50.65;100926.16;5054061;27;98381;-49
2021/10/02 00:57:10;;;;;;;1.37;1.00;;;20.50;99.00;;;20.73;50.94;100925.94;5050769;27;102070;-50
2021/10/02 00:59:37;;;;;;;2.13;1.23;;;20.60;98.90;;;20.76;50.87;100923.00;5070453;27;98384;-49
2021/10/02 01:02:13;;;;;;;2.47;1.27;;;20.60;98.70;;;20.79;50.79;100923.63;5054679;27;97709;-47
2021/10/02 01:04:57;;;;;;;1.67;1.20;;;20.70;98.70;;;20.74;50.93;100923.13;5051715;27;99331;-47
2021/10/02 01:07:55;;;;;;;2.27;1.33;;;20.60;99.00;;;20.71;50.97;100922.50;5049527;27;104010;-44
2021/10/02 01:10:44;;;;;;;3.67;1.73;;;20.60;99.30;;;20.65;51.60;100912.22;5066910;27;99928;-47
2021/10/02 01:13:47;;;;;;;3.80;1.70;;;20.50;99.70;;;20.56;51.47;100912.91;5051282;27;97293;-46
2021/10/02 01:16:31;;;;;;;1.80;1.23;;;20.30;99.90;;;20.50;51.34;100909.69;5047558;27;97968;-43
2021/10/02 01:19:43;;;;;;;2.57;1.37;;;20.20;99.80;;;20.42;51.73;100904.06;5065283;27;99186;-45
2021/10/02 01:22:43;;;;;;;1.97;1.20;;;20.10;99.90;;;20.39;51.87;100900.69;5068119;27;102437;-47
2021/10/02 01:26:04;;;;;;;2.30;1.13;;;20.10;99.90;;;20.37;52.05;100895.44;5045213;27;98961;-45
2021/10/02 01:28:34;;;;;;;4.70;1.47;;;20.10;99.90;;;20.36;51.83;100899.09;5049235;27;97152;-44
2021/10/02 01:31:26;;;;;;;1.37;1.27;;;20.10;99.90;;;20.35;52.09;100900.06;5061472;27;98041;-43
2021/10/02 01:34:12;;;;;;;1.33;1.10;;;20.10;99.90;;;20.36;52.09;100896.41;5054915;27;96941;-45
2021/10/02 01:36:56;;;;;;;1.50;1.20;;;20.10;99.90;;;20.35;52.20;100884.00;5047982;27;99538;-46
2021/10/02 01:47:52;;;;;;;1.57;1.07;;;20.30;99.70;;;20.49;51.64;100875.84;5052098;27;98523;-45
2021/10/02 01:50:30;;;;;;;1.00;0.90;;;20.30;99.60;;;20.56;51.38;100878.09;5054725;27;98440;-46
2021/10/02 01:53:00;;;;;;;1.07;0.87;;;20.40;99.50;;;20.57;51.46;100877.97;5060406;27;96798;-46
2021/10/02 01:55:29;;;;;;;1.40;1.00;;;20.50;99.40;;;20.57;51.31;100885.16;5055482;27;98717;-45
2021/10/02 01:58:09;;;;;;;4.87;1.40;;;20.40;99.60;;;20.54;51.50;100882.66;5045277;27;99862;-48
2021/10/02 02:00:47;;;;;;;1.70;0.90;;;20.40;99.90;;;20.53;51.62;100878.28;5054334;27;97379;-44
2021/10/02 02:03:18;;;;;;;1.63;1.10;;;20.30;99.90;;;20.52;51.72;100876.56;5045783;27;103493;-46
2021/10/02 02:05:46;;;;;;;1.43;0.90;;;20.30;99.90;;;20.47;51.74;100877.78;5046943;27;99274;-50
2021/10/02 02:08:15;;;;;;;0.90;0.83;;;20.20;99.90;;;20.44;51.87;100872.66;5069045;27;97113;-50
2021/10/02 02:10:44;;;;;;;2.97;1.10;;;20.20;99.90;;;20.48;51.95;100873.28;5063902;27;97563;-44
2021/10/02 02:13:14;;;;;;;3.87;1.20;;;20.20;99.90;;;20.47;51.79;100876.91;5067056;27;102669;-47
2021/10/02 02:15:42;;;;;;;2.00;0.80;;;20.20;99.90;;;20.42;51.96;100882.63;5064291;27;98211;-47
2021/10/02 02:18:12;;;;;;;1.47;0.90;;;20.20;99.90;;;20.40;52.12;100881.00;5051103;27;97127;-50
2021/10/02 02:20:48;;;;;;;2.47;1.10;;;20.10;99.90;;;20.38;51.97;100878.41;5068123;27;97850;-47
2021/10/02 02:23:14;;;;;;;1.00;0.87;;;20.10;99.90;;;20.33;52.15;100869.00;5029931;27;103200;-47
2021/10/02 02:25:41;;;;;;;1.20;0.90;;;20.00;99.90;;;20.31;52.50;100861.09;5067099;27;98145;-48
2021/10/02 02:28:08;;;;;;;1.70;0.90;;;20.00;99.90;;;20.34;52.20;100870.72;5046415;27;97317;-45
2021/10/02 02:30:36;;;;;;;2.57;1.57;;;20.10;99.90;;;20.27;52.58;100875.69;5051147;27;97321;-49
2021/10/02 02:33:03;;;;;;;2.90;0.90;;;20.00;99.90;;;20.24;52.46;100864.31;5063441;27;97594;-44
2021/10/02 02:35:28;;;;;;;0.80;0.70;;;19.90;99.90;;;20.20;52.61;100869.03;5052473;27;102587;-46
2021/10/02 02:37:54;;;;;;;2.43;1.50;;;19.80;99.90;;;20.21;52.60;100865.38;5063922;27;99799;-49
2021/10/02 02:40:21;;;;;;;1.80;1.10;;;19.90;99.90;;;20.20;52.63;100866.34;5055146;27;98463;-47
2021/10/02 02:42:48;;;;;;;1.10;1.00;;;19.90;99.90;;;20.24;52.76;100858.94;5045429;27;98194;-45
2021/10/02 02:45:17;;;;;;;1.80;0.90;;;19.90;99.90;;;20.26;52.38;100857.91;5049155;27;100193;-45
2021/10/02 02:48:07;;;;;;;1.23;0.83;;;20.00;99.90;;;20.33;52.42;100843.06;5050669;27;97333;-48
2021/10/02 02:51:00;;;;;;;1.97;1.07;;;20.10;99.90;;;20.36;52.27;100845.53;5045574;27;97679;-46
2021/10/02 02:53:25;;;;;;;1.13;0.93;;;20.20;99.90;;;20.38;52.25;100846.25;5060834;27;101125;-48
2021/10/02 02:56:00;;;;;;;0.80;0.80;;;20.20;99.90;;;20.38;52.45;100845.41;5048718;27;98183;-48
2021/10/02 02:58:30;;;;;;;1.53;1.00;;;20.20;99.90;;;20.35;52.29;100846.50;5067138;27;96949;-50
2021/10/02 03:01:00;;;;;;;1.20;1.00;;;20.10;99.90;;;20.28;52.44;100861.31;5047895;27;97284;-50
2021/10/02 03:03:33;;;;;;;1.73;1.50;;;20.00;99.90;;;20.19;52.87;100861.97;5049881;27;97790;-44
2021/10/02 03:06:05;;;;;;;3.57;1.90;;;19.90;99.90;;;20.11;53.49;100859.88;5042506;27;98184;-46
2021/10/02 03:08:38;;;;;;;2.30;0.93;;;19.70;99.90;;;20.07;53.13;100862.84;5066898;27;97518;-49
2021/10/02 03:11:05;;;;;;;0.87;0.83;;;19.60;99.90;;;20.05;53.14;100862.97;5042515;27;97358;-47
2021/10/02 03:13:36;;;;;;;1.27;0.70;;;19.60;99.90;;;20.11;53.17;100864.38;5060357;27;97465;-48
2021/10/02 03:16:11;;;;;;;1.50;1.20;;;19.70;99.90;;;20.14;53.29;100869.50;5046732;27;100439;-47
2021/10/02 03:18:46;;;;;;;1.67;0.93;;;19.90;99.90;;;20.12;53.26;100868.75;5056590;27;97403;-48
2021/10/02 03:21:14;;;;;;;1.93;0.90;;;19.80;99.90;;;20.09;53.13;100874.31;5045862;27;97139;-50
2021/10/02 03:23:45;;;;;;;0.93;0.90;;;19.80;99.90;;;20.14;52.97;100869.50;5055358;27;97555;-46
2021/10/02 03:26:11;;;;;;;1.40;1.00;;;19.80;99.90;;;20.15;53.06;100873.88;5033606;27;102066;-45
2021/10/02 03:28:38;;;;;;;1.53;1.10;;;19.80;99.90;;;20.17;53.01;100863.91;5057167;27;96839;-45
2021/10/02 03:31:05;;;;;;;1.00;0.70;;;19.90;99.90;;;20.22;52.99;100864.41;5040053;27;102380;-49
2021/10/02 03:33:32;;;;;;;1.17;0.90;;;19.90;99.90;;;20.27;52.60;100848.91;5073715;27;99525;-47
2021/10/02 03:35:58;;;;;;;1.07;0.97;;;20.00;99.90;;;20.34;52.58;100850.13;5032867;27;97279;-45
2021/10/02 03:38:25;;;;;;;1.53;1.00;;;20.20;99.90;;;20.40;52.36;100849.72;5054093;27;97426;-44
2021/10/02 03:40:51;;;;;;;1.27;0.90;;;20.30;99.90;;;20.47;52.12;100840.25;5053334;27;99172;-47
2021/10/02 03:43:17;;;;;;;1.70;0.80;;;20.30;99.90;;;20.52;52.02;100841.75;5064685;27;98351;-49
2021/10/02 03:45:43;;;;;;;1.53;1.00;;;20.40;99.90;;;20.54;51.98;100850.50;5055494;27;96973;-47
2021/10/02 03:48:10;;;;;;;1.80;1.33;;;20.40;99.90;;;20.53;52.29;100848.81;5063609;27;96969;-45
2021/10/02 03:50:35;;;;;;;2.07;1.33;;;20.30;99.90;;;20.52;52.44;100836.38;5071059;27;96975;-50
2021/10/02 03:53:02;;;;;;;1.17;0.83;;;20.30;99.90;;;20.52;52.30;100836.38;5063385;27;102052;-49
2021/10/02 03:55:27;;;;;;;1.63;0.93;;;20.30;99.90;;;20.54;52.23;100813.00;5053236;27;96778;-44
2021/10/02 03:57:53;;;;;;;1.27;0.80;;;20.30;99.90;;;20.58;51.97;100818.03;5046350;27;104163;-46
2021/10/02 04:00:21;;;;;;;1.30;0.80;;;20.40;99.90;;;20.63;51.75;100812.31;5066754;27;96976;-48
2021/10/02 04:02:47;;;;;;;2.47;1.03;;;20.60;99.90;;;20.63;51.87;100813.19;5065030;27;97629;-52
2021/10/02 04:05:13;;;;;;;1.00;0.80;;;20.50;99.90;;;20.62;52.08;100811.47;5052308;27;100064;-45
2021/10/02 04:07:39;;;;;;;0.87;0.80;;;20.50;99.90;;;20.56;52.03;100817.31;5070775;27;98730;-52
2021/10/02 04:10:07;;;;;;;3.07;1.80;;;20.40;99.90;;;20.48;52.74;100828.56;5066264;27;97256;-44
2021/10/02 04:12:33;;;;;;;1.77;0.87;;;20.20;99.90;;;20.42;52.58;100837.09;5054682;27;97701;-46
2021/10/02 04:14:58;;;;;;;2.10;1.20;;;20.10;99.90;;;20.33;52.75;100832.34;5008986;27;99700;-46
2021/10/02 04:17:24;;;;;;;2.10;0.97;;;20.00;99.90;;;20.30;53.07;100832.59;5042500;27;98108;-45
2021/10/02 04:19:50;;;;;;;1.43;0.83;;;19.90;99.90;;;20.31;52.92;100834.31;5049144;27;97283;-44
2021/10/02 04:22:16;;;;;;;1.40;0.97;;;20.00;99.90;;;20.34;52.73;100828.72;5067723;27;97709;-47
2021/10/02 04:24:43;;;;;;;1.13;1.03;;;20.00;99.90;;;20.40;52.73;100832.78;5054592;27;99287;-48
2021/10/02 04:27:09;;;;;;;1.13;0.97;;;20.20;99.90;;;20.46;52.39;100829.66;5054410;27;96873;-44
2021/10/02 04:29:36;;;;;;;2.83;1.70;;;20.20;99.90;;;20.49;52.50;100838.31;5073663;27;97141;-45
2021/10/02 04:32:03;;;;;;;1.10;0.57;;;20.30;99.90;;;20.53;52.17;100827.38;5063535;27;97218;-48
2021/10/02 04:34:29;;;;;;;1.07;0.80;;;20.40;99.90;;;20.54;52.21;100829.06;5062380;27;99204;-49
2021/10/02 04:36:55;;;;;;;2.23;1.10;;;20.40;99.90;;;20.57;52.11;100829.72;5048096;27;99224;-47
2021/10/02 04:39:21;;;;;;;1.60;0.80;;;20.40;99.90;;;20.59;51.92;100825.09;5067082;27;97594;-48
2021/10/02 04:41:47;;;;;;;0.80;0.70;;;20.50;99.90;;;20.63;51.96;100823.03;5066928;27;100904;-44
2021/10/02 04:44:13;;;;;;;1.07;0.97;;;20.50;99.90;;;20.64;51.80;100819.38;5050689;27;97273;-43
2021/10/02 04:46:38;;;;;;;0.80;0.80;;;20.50;99.90;;;20.59;52.13;100826.94;5075744;27;97103;-44
2021/10/02 04:49:07;;;;;;;1.03;0.90;;;20.50;99.90;;;20.55;52.29;100826.31;5048718;27;100525;-51
2021/10/02 04:51:33;;;;;;;1.10;1.00;;;20.30;99.90;;;20.52;52.25;100831.88;5069623;27;98001;-49
2021/10/02 04:53:59;;;;;;;0.80;0.70;;;20.30;99.90;;;20.47;52.44;100829.53;5064473;27;100389;-46
2021/10/02 04:56:25;;;;;;;4.50;2.20;;;20.20;99.90;;;20.42;52.77;100831.72;5054227;27;97183;-47
2021/10/02 04:58:50;;;;;;;2.50;1.57;;;20.20;99.90;;;20.34;52.75;100841.25;5068620;27;97534;-48
2021/10/02 05:01:16;;;;;;;0.77;0.70;;;20.00;99.90;;;20.32;52.95;100836.00;5064601;27;98589;-50
2021/10/02 05:03:42;;;;;;;1.33;0.90;;;20.00;99.90;;;20.32;52.79;100832.47;5070002;27;98294;-45
2021/10/02 05:06:08;;;;;;;2.23;1.10;;;20.00;99.90;;;20.37;52.95;100832.97;5045679;27;96947;-48
2021/10/02 05:08:35;;;;;;;1.83;1.00;;;20.10;99.90;;;20.40;52.68;100844.34;5054260;27;97735;-45
2021/10/02 05:11:02;;;;;;;1.33;1.13;;;20.20;99.90;;;20.46;52.69;100841.22;5042333;27;98403;-46
2021/10/02 05:13:30;;;;;;;1.13;0.90;;;20.30;99.90;;;20.52;52.50;100833.69;5051901;27;97814;-48
2021/10/02 05:15:56;;;;;;;2.37;1.13;;;20.30;99.90;;;20.54;52.15;100826.41;5062827;27;97601;-45
2021/10/02 05:18:22;;;;;;;1.53;1.10;;;20.40;99.90;;;20.61;52.23;100825.00;5067280;27;98083;-44
2021/10/02 05:20:48;;;;;;;0.87;0.67;;;20.50;99.90;;;20.64;52.07;100819.38;5064898;27;98527;-45
2021/10/02 05:23:14;;;;;;;1.97;1.10;;;20.60;99.90;;;20.69;51.83;100817.25;5047318;27;99364;-48
2021/10/02 05:25:40;;;;;;;1.03;0.87;;;20.60;99.90;;;20.74;51.88;100825.78;5049580;27;97423;-47
2021/10/02 05:28:06;;;;;;;1.93;1.03;;;20.70;99.90;;;20.73;51.99;100826.75;5047440;27;97310;-46
2021/10/02 05:30:32;;;;;;;0.90;0.80;;;20.70;99.90;;;20.77;51.60;100820.19;5052431;27;99749;-48
2021/10/02 05:32:58;;;;;;;1.40;0.90;;;20.70;99.90;;;20.77;51.58;100822.84;5059863;27;97361;-46
2021/10/02 05:35:24;;;;;;;1.57;0.87;;;20.70;99.80;;;20.80;51.67;100819.94;5067834;27;97259;-48
2021/10/02 05:37:50;;;;;;;2.23;1.00;;;20.70;99.80;;;20.83;51.50;100819.72;5043220;27;97518;-50
2021/10/02 05:40:16;;;;;;;3.33;1.00;;;20.80;99.70;;;20.86;51.46;100819.50;5065749;27;98665;-44
2021/10/02 05:42:42;;;;;;;1.83;1.00;;;20.80;99.60;;;20.85;51.61;100825.81;5049300;27;98431;-46
2021/10/02 05:45:08;;;;;;;3.70;1.10;;;20.80;99.70;;;20.83;51.63;100818.84;5043578;27;97782;-47
2021/10/02 05:47:34;;;;;;;1.53;1.00;;;20.70;99.70;;;20.83;51.54;100814.38;5066899;27;98616;-49
2021/10/02 05:50:00;;;;;;;1.40;1.10;;;20.70;99.70;;;20.81;51.56;100813.59;5056716;27;101661;-46
2021/10/02 05:52:27;;;;;;;1.80;1.10;;;20.70;99.70;;;20.81;51.70;100813.59;5049626;27;98654;-45
2021/10/02 05:54:53;;;;;;;2.13;0.97;;;20.70;99.70;;;20.81;51.44;100810.94;5041433;27;97726;-45
2021/10/02 05:57:19;;;;;;;4.00;1.93;;;20.70;99.70;;;20.78;51.55;100817.38;5067754;27;98184;-44
2021/10/02 05:59:46;;;;;;;1.63;0.90;;;20.70;99.90;;;20.74;51.78;100825.78;5063911;27;97726;-50
2021/10/02 06:02:13;;;;;;;1.40;0.90;;;20.60;99.90;;;20.63;52.42;100839.13;5051766;27;98716;-48
2021/10/02 06:04:39;;;;;;;1.20;0.97;;;20.40;99.90;;;20.59;52.09;100833.16;5050425;27;97398;-45
2021/10/02 06:07:05;;;;;;;1.40;0.97;;;20.30;99.90;;;20.60;52.20;100823.28;5040658;27;98675;-43
2021/10/02 06:09:31;;;;;;;0.70;0.70;;;20.40;99.90;;;20.61;52.24;100827.66;5068453;27;98884;-46
2021/10/02 06:11:57;;;;;;;1.30;0.90;;;20.40;99.90;;;20.60;52.27;100840.22;5043415;27;100175;-48
2021/10/02 06:14:23;;;;;;;1.73;1.10;;;20.50;99.90;;;20.57;52.31;100834.22;5049843;27;97033;-47
2021/10/02 06:16:49;;;;;;;1.20;1.10;;;20.40;99.90;;;20.56;52.44;100837.88;5060710;27;97731;-49
2021/10/02 06:19:17;;;;;;;1.47;1.27;;;20.40;99.90;;;20.53;52.27;100840.75;5052000;27;99869;-48
2021/10/02 06:21:47;;;;;;;1.73;1.27;;;20.30;99.90;;;20.55;52.38;100849.56;5063646;27;98774;-46
2021/10/02 06:24:14;;;;;;;2.30;1.20;;;20.30;99.90;;;20.54;52.61;100850.50;5064638;27;96990;-49
2021/10/02 06:26:40;;;;;;;1.53;1.00;;;20.30;99.90;;;20.57;52.31;100839.59;5054005;27;98630;-53
2021/10/02 06:29:08;;;;;;;1.63;0.90;;;20.40;99.90;;;20.60;52.21;100842.03;5047123;27;98593;-50
2021/10/02 06:31:36;;;;;;;1.53;0.73;;;20.50;99.90;;;20.65;52.01;100845.22;5052113;27;100293;-46
2021/10/02 06:34:02;;;;;;;1.50;0.90;;;20.50;99.90;;;20.68;52.23;100842.31;5047852;27;97268;-46
2021/10/02 06:36:29;;;;;;;1.03;0.93;;;20.60;99.90;;;20.71;52.10;100847.47;5054676;27;98405;-46
2021/10/02 06:38:55;;;;;;;2.03;1.00;;;20.60;99.90;;;20.73;51.90;100837.47;5026265;27;98803;-43
2021/10/02 06:41:22;;;;;;;1.50;1.00;;;20.60;99.90;;;20.76;51.83;100829.19;5053114;27;96911;-44
2021/10/02 06:43:49;;;;;;;1.27;0.97;;;20.70;99.90;;;20.80;51.95;100834.19;5045842;27;98117;-46
2021/10/02 06:46:16;;;;;;;1.23;0.80;;;20.80;99.80;;;20.82;51.75;100831.41;5065523;27;97281;-44
2021/10/02 06:48:42;;;;;;;1.70;0.70;;;20.80;99.70;;;20.87;51.59;100826.56;5052154;27;99171;-47
2021/10/02 06:51:10;;;;;;;3.00;1.03;;;20.90;99.70;;;20.87;51.67;100837.28;5046883;27;97119;-47
2021/10/02 06:53:37;;;;;;;1.33;0.93;;;20.80;99.80;;;20.85;51.65;100844.59;5069376;27;97415;-46
2021/10/02 06:56:04;;;;;;;1.80;1.10;;;20.80;99.90;;;20.85;51.90;100846.41;5061978;27;97354;-48
2021/10/02 06:58:32;;;;;;;1.43;1.00;;;20.70;99.90;;;20.82;51.97;100836.75;5055152;27;101644;-46
2021/10/02 07:00:58;;;;;;;1.00;0.90;;;20.70;99.90;;;20.82;51.85;100839.44;5064307;27;96979;-44
2021/10/02 07:03:24;;;;;;;1.80;1.00;;;20.70;99.90;;;20.83;51.83;100825.09;5052581;27;97499;-46
2021/10/02 07:05:50;;;;;;;2.17;1.00;;;20.70;99.90;;;20.85;51.96;100817.78;5047947;27;98529;-50
2021/10/02 07:08:16;;;;;;;1.60;0.93;;;20.80;99.80;;;20.83;52.02;100830.47;5052736;27;100588;-49
2021/10/02 07:10:42;;;;;;;0.80;0.80;;;20.70;99.90;;;20.78;51.90;100832.59;5068061;27;97189;-48
2021/10/02 07:13:08;;;;;;;1.53;1.23;;;20.60;99.90;;;20.74;52.31;100831.13;5052294;27;97303;-48
2021/10/02 07:15:34;;;;;;;1.73;1.17;;;20.60;99.90;;;20.68;52.26;100836.94;5053262;27;97943;-47
2021/10/02 07:18:00;;;;;;;0.90;0.80;;;20.50;99.90;;;20.65;52.31;100840.72;5063116;27;98456;-50
2021/10/02 07:20:27;;;;;;;0.83;0.77;;;20.40;99.90;;;20.62;52.47;100832.06;5071878;27;97761;-50
2021/10/02 07:22:53;;;;;;;2.90;1.30;;;20.40;99.90;;;20.61;52.41;100838.38;5047045;27;96854;-45
2021/10/02 07:25:24;;;;;;;1.13;0.70;;;20.40;99.90;;;20.64;52.34;100838.16;5072755;27;97754;-47
2021/10/02 07:27:51;;;;;;;2.07;1.10;;;20.50;99.90;;;20.67;52.44;100840.59;5064104;27;97222;-44
2021/10/02 07:30:17;;;;;;;2.60;1.40;;;20.50;99.90;;;20.62;52.73;100842.78;5067658;27;98235;-48
2021/10/02 07:32:44;;;;;;;2.00;1.37;;;20.50;99.90;;;20.61;53.14;100841.06;5068660;27;96977;-51
2021/10/02 07:35:13;;;;;;;1.53;0.97;;;20.50;99.90;;;20.64;52.47;100840.84;5059869;27;100046;-48
2021/10/02 07:37:39;;;;;;;1.30;1.00;;;20.50;99.90;;;20.59;52.69;100843.00;5055644;27;97723;-47
2021/10/02 07:40:09;;;;;;;0.90;0.80;;;20.40;99.90;;;20.61;52.65;100839.25;5056449;27;99392;-47
2021/10/02 07:42:37;;;;;;;1.87;0.90;;;20.50;99.90;;;20.66;52.34;100828.16;5067441;27;100639;-44
2021/10/02 07:45:09;;;;;;;1.03;0.90;;;20.60;99.90;;;20.71;52.26;100837.59;5039927;27;97710;-45
2021/10/02 07:47:42;;;;;;;0.97;0.90;;;20.60;99.90;;;20.74;51.90;100837.34;5072475;27;97709;-48
2021/10/02 07:50:15;;;;;;;1.20;0.80;;;20.70;99.90;;;20.79;52.10;100834.31;5053513;27;97487;-47
2021/10/02 07:52:42;;;;;;;0.97;0.87;;;20.70;99.90;;;20.81;51.76;100821.66;5070770;27;98744;-52
2021/10/02 07:55:12;;;;;;;1.47;0.80;;;20.70;99.90;;;20.82;51.98;100822.50;5046254;27;98562;-47
2021/10/02 07:57:41;;;;;;;1.30;0.80;;;20.80;99.90;;;20.82;51.96;100803.75;5051345;27;99479;-49
2021/10/02 08:00:10;;;;;;;2.30;1.03;;;20.80;99.90;;;20.84;52.01;100807.19;5065019;27;99877;-44
2021/10/02 08:02:36;;;;;;;3.20;1.70;;;20.80;99.80;;;20.84;52.31;100802.66;5063905;27;97250;-48
2021/10/02 08:05:03;;;;;;;2.90;1.53;;;20.80;99.90;;;20.76;52.53;100807.75;5066774;27;98195;-49
2021/10/02 08:07:30;;;;;;;1.77;1.40;;;20.70;99.90;;;20.72;52.29;100806.28;5042874;27;98734;-51
2021/10/02 08:09:56;;;;;;;0.80;0.80;;;20.60;99.90;;;20.70;52.42;100813.59;5050777;27;98180;-48
2021/10/02 08:12:22;;;;;;;0.93;0.90;;;20.50;99.90;;;20.69;52.55;100806.53;5031972;27;98369;-46
2021/10/02 08:14:48;;;;;;;1.20;1.03;;;20.50;99.90;;;20.72;52.25;100800.91;5048807;27;97705;-48
2021/10/02 08:17:15;;;;;;;1.37;1.23;;;20.60;99.90;;;20.72;52.30;100795.56;5032645;27;98660;-49
2021/10/02 08:19:42;;;;;;;1.43;0.80;;;20.60;99.90;;;20.76;52.07;100802.38;5050009;27;97481;-49
2021/10/02 08:22:09;;;;;;;1.10;0.90;;;20.60;99.90;;;20.76;52.33;100791.66;5047358;27;98101;-46
2021/10/02 08:24:36;;;;;;;1.33;0.80;;;20.60;99.90;;;20.77;52.31;100788.88;5067640;27;99931;-47
2021/10/02 08:27:03;;;;;;;1.90;0.90;;;20.70;99.90;;;20.79;52.19;100783.38;5047192;27;98421;-50
2021/10/02 08:29:31;;;;;;;1.60;1.33;;;20.70;99.90;;;20.76;52.96;100778.25;5046575;27;100092;-46
2021/10/02 08:31:56;;;;;;;1.30;0.93;;;20.70;99.90;;;20.73;52.51;100775.81;5030650;27;97172;-48
2021/10/02 08:34:23;;;;;;;1.77;0.93;;;20.60;99.90;;;20.75;52.34;100777.41;5068339;27;96978;-45
2021/10/02 08:36:49;;;;;;;1.70;1.00;;;20.60;99.90;;;20.80;52.10;100771.69;5042922;27;99476;-47
2021/10/02 08:39:16;;;;;;;1.20;1.10;;;20.70;99.90;;;20.82;52.46;100768.88;5050749;27;98642;-46
2021/10/02 08:41:44;;;;;;;1.70;1.03;;;20.70;99.90;;;20.75;52.63;100764.00;5031725;27;98711;-48
2021/10/02 08:44:11;;;;;;;1.60;0.90;;;20.60;99.90;;;20.72;52.35;100763.41;5051090;27;97297;-45
2021/10/02 08:46:38;;;;;;;1.27;1.00;;;20.60;99.90;;;20.70;52.54;100759.97;5049621;27;99020;-47
2021/10/02 08:49:31;;;;;;;3.23;1.53;;;20.50;99.90;;;20.68;52.49;100757.38;5065891;27;99993;-49
2021/10/02 08:52:02;;;;;;;1.00;0.93;;;20.50;99.90;;;20.71;52.33;100750.97;5043368;27;99078;-48
2021/10/02 08:54:28;;;;;;;1.97;1.00;;;20.60;99.90;;;20.72;52.51;100758.03;5066422;27;96984;-45
2021/10/02 08:56:55;;;;;;;2.10;1.60;;;20.60;99.90;;;20.68;53.88;100751.19;5062372;27;97098;-47
2021/10/02 08:59:21;;;;;;;2.57;1.70;;;20.60;99.90;;;20.63;54.47;100742.66;5038874;27;99156;-44
2021/10/02 09:01:48;;;;;;;2.40;1.40;;;20.50;99.90;;;20.56;53.25;100736.06;5042979;27;97509;-46
2021/10/02 09:04:14;;;;;;;1.60;1.30;;;20.40;99.90;;;20.57;53.88;100741.28;5053794;27;98049;-48
2021/10/02 09:06:40;;;;;;;1.53;1.27;;;20.40;99.90;;;20.54;54.70;100737.97;5054056;27;97509;-48
2021/10/02 09:09:08;;;;;;;1.10;1.00;;;20.40;99.90;;;20.57;52.82;100740.44;5064359;27;97174;-53
2021/10/02 09:11:35;;;;;;;0.80;0.80;;;20.40;99.90;;;20.59;52.73;100742.03;5033507;27;97475;-47
2021/10/02 09:14:01;;;;;;;4.43;1.20;;;20.50;99.90;;;20.65;52.99;100735.34;5059961;27;97675;-50
2021/10/02 09:16:27;;;;;;;1.17;0.90;;;20.60;99.90;;;20.67;52.53;100728.03;5056098;27;99884;-46
2021/10/02 09:18:53;;;;;;;1.30;1.00;;;20.60;99.90;;;20.71;52.65;100724.16;5059995;27;97184;-50
2021/10/02 09:21:19;;;;;;;3.10;1.73;;;20.70;99.90;;;20.72;53.83;100731.22;5053809;27;99056;-46
2021/10/02 09:23:49;;;;;;;1.00;0.90;;;20.70;99.90;;;20.71;52.82;100721.50;5048809;27;98216;-51
2021/10/02 09:26:17;;;;;;;1.93;1.43;;;20.60;99.90;;;20.72;52.57;100721.38;5067499;27;101972;-48
2021/10/02 09:28:48;;;;;;;1.50;1.03;;;20.70;99.90;;;20.74;52.81;100713.19;5035912;27;100142;-48
2021/10/02 09:31:17;;;;;;;1.43;1.00;;;20.70;99.90;;;20.77;52.45;100712.97;5063559;27;97901;-47
2021/10/02 09:33:46;;;;;;;1.47;1.07;;;20.70;99.90;;;20.77;52.45;100702.25;5068946;27;97700;-45
2021/10/02 09:36:20;;;;;;;0.93;0.90;;;20.70;99.90;;;20.78;52.43;100690.53;5041210;27;101598;-48
2021/10/02 09:38:50;;;;;;;0.90;0.80;;;20.80;99.90;;;20.83;52.49;100685.69;5049085;27;99625;-46
2021/10/02 09:41:16;;;;;;;1.40;1.00;;;20.80;99.90;;;20.87;52.17;100687.16;5045465;27;98782;-46
2021/10/02 09:43:54;;;;;;;1.20;0.97;;;20.90;99.90;;;20.92;52.56;100687.63;5049241;27;97155;-46
2021/10/02 09:46:35;;;;;;;3.30;1.93;;;20.90;99.90;;;20.88;53.71;100686.19;5042019;27;102780;-49
2021/10/02 09:49:01;;;;;;;1.00;0.80;;;20.80;99.90;;;20.86;52.33;100680.09;5047005;27;97250;-48
2021/10/02 09:51:42;;;;;;;1.20;1.10;;;20.80;99.90;;;20.85;52.42;100678.38;5046790;27;97252;-46
2021/10/02 09:54:35;;;;;;;0.87;0.73;;;20.80;99.90;;;20.86;52.30;100674.72;5066127;27;99713;-46
2021/10/02 09:57:14;;;;;;;0.93;0.90;;;20.80;99.90;;;20.87;52.21;100675.56;5045842;27;99435;-45
2021/10/02 09:59:41;;;;;;;3.70;1.70;;;20.80;99.90;;;20.86;55.59;100684.59;5052553;27;98090;-44
2021/10/02 10:02:18;;;;;;;3.40;1.90;;;20.80;99.90;;;20.88;55.32;100682.66;5045087;27;96954;-48
2021/10/02 10:04:55;;;;;;;0.80;0.73;;;20.80;99.90;;;20.80;52.50;100680.56;5053043;27;98360;-51
2021/10/02 10:07:22;;;;;;;1.10;0.97;;;20.70;99.90;;;20.80;52.57;100683.22;5060755;27;102044;-49
2021/10/02 10:10:13;;;;;;;1.33;1.00;;;20.70;99.90;;;20.84;52.71;100686.53;5048304;27;97370;-45
2021/10/02 10:12:42;;;;;;;1.17;0.93;;;20.70;99.90;;;20.82;52.76;100678.59;5066391;27;97338;-47
2021/10/02 10:15:26;;;;;;;1.00;0.90;;;20.80;99.90;;;20.82;52.57;100678.59;5051750;27;97332;-47
2021/10/02 10:17:52;;;;;;;1.57;1.10;;;20.70;99.90;;;20.83;52.40;100680.34;5046465;27;100272;-50
2021/10/02 10:20:19;;;;;;;1.73;1.10;;;20.70;99.90;;;20.70;53.74;100674.22;5071609;27;97406;-46
2021/10/02 10:22:57;;;;;;;2.50;1.77;;;20.60;99.90;;;20.59;55.00;100676.88;5038772;27;99124;-48
2021/10/02 10:25:23;;;;;;;1.07;0.93;;;20.40;99.90;;;20.55;53.37;100670.03;5044525;27;97787;-46
2021/10/02 10:27:49;;;;;;;1.37;1.20;;;20.30;99.90;;;20.55;53.42;100656.66;5060625;27;104258;-46
2021/10/02 10:30:17;;;;;;;1.67;1.10;;;20.30;99.90;;;20.55;55.58;100648.63;5061807;27;97375;-45
2021/10/02 10:33:05;;;;;;;2.50;1.20;;;20.40;99.90;;;20.54;53.37;100637.00;5053436;27;97184;-46
2021/10/02 10:35:52;;;;;;;1.50;1.00;;;20.40;99.90;;;20.56;53.78;100635.09;5043507;27;97638;-46
2021/10/02 10:38:25;;;;;;;1.53;1.10;;;20.50;99.90;;;20.59;53.31;100634.00;5044781;27;104996;-45
2021/10/02 10:40:53;;;;;;;0.90;0.90;;;20.50;99.90;;;20.61;53.15;100637.41;5036540;27;108804;-44
2021/10/02 10:43:20;;;;;;;1.73;1.10;;;20.60;99.90;;;20.67;52.97;100626.19;5052841;27;97279;-49
2021/10/02 10:45:46;;;;;;;1.17;0.70;;;20.60;99.90;;;20.70;52.69;100615.25;5046652;27;97522;-51
2021/10/02 10:48:13;;;;;;;2.00;0.80;;;20.70;99.90;;;20.72;52.64;100614.16;5048790;27;99072;-44
2021/10/02 10:50:43;;;;;;;0.87;0.80;;;20.70;99.90;;;20.74;52.92;100600.63;5053438;27;99241;-43
2021/10/02 10:53:11;;;;;;;1.43;0.83;;;20.80;99.90;;;20.77;52.53;100590.50;5041893;27;97605;-45
2021/10/02 10:55:54;;;;;;;0.97;0.90;;;20.80;99.90;;;20.74;52.76;100581.88;5051153;27;97090;-44
2021/10/02 10:58:23;;;;;;;2.33;1.00;;;20.90;99.90;;;20.81;56.04;100580.38;5042314;27;102896;-46
2021/10/02 11:00:49;;;;;;;1.93;0.83;;;20.90;99.90;;;20.82;52.73;100581.25;5045619;27;97512;-45
2021/10/02 11:03:38;;;;;;;1.10;0.83;;;20.90;99.90;;;20.86;52.32;100588.94;5045241;27;104347;-42
2021/10/02 11:06:07;;;;;;;1.17;0.90;;;20.90;99.90;;;20.83;52.58;100601.72;5048622;27;97401;-44
2021/10/02 11:09:08;;;;;;;1.30;0.90;;;20.90;99.90;;;20.90;53.04;100594.91;5065798;27;97694;-42
2021/10/02 11:11:59;;;;;;;1.50;1.00;;;21.00;99.90;;;20.92;53.68;100591.13;5049474;27;101178;-45
2021/10/02 11:14:48;;;;;;;1.00;0.80;;;21.00;99.90;;;20.94;52.98;100575.75;5052788;27;98067;-42
2021/10/02 11:17:28;;;;;;;1.20;1.00;;;21.00;99.90;;;20.93;52.91;100574.06;5047533;27;98418;-45